Pagina principale
METAR-TAF:

METAR-TAF

Aeroporti :

Aeroporto di Figari Corsica del Sud

Figari, Francia

latitudine: 41-30N, longitudine: 009-06E, altezza: 26 m

Osservazione

Il bollettino è stato emesso 23 minuti fa, alle 19:30 UTC
Vento 6 kt da est/nord-est
Temperature 27°C
Umidità 48%
Pressione 1019 hPa
Visibilità 10 km o più
nessuna nube inferiore a 1500 m e nessun cumulonembo

METAR: LFKF 251930Z AUTO 07006KT CAVOK 27/15 Q1019 NOSIG

Ora: 21:53 (19:53 UTC)

Previsione

Il bollettino è stato emesso 5 ore e 53 minuti fa, alle 14:00 UTC
Previsione valida dal 25 alle 15 UTC al 26 alle 15 UTC
Vento 12 kt da est/nord-est
Visibilità 10 km o più
nessuna nube inferiore a 1500 m e nessun cumulonembo
Temporaneamente
dal 26 alle 09 UTC al 26 alle 14 UTC
Vento 15 kt da est/nord-est con raffiche fino a 25 kt

TAF: LFKF 251400Z 2515/2615 06012KT CAVOK TEMPO 2609/2614 06015G25KT

Osservazioni e previsioni meteorologiche di più di 4000 aeroporti (messaggi METAR e TAF).

Le stazioni disponibili sono rappresentate dai dischi gialli e rossi sulla carta.

Puntare il mouse per vedere il nome della stazione.

Clicca sopra per visualizzare le osservazioni e previsioni meteorologiche.

Per cambiare la mappa : fare clic sui pulsanti verdi con una croce nera per ingrandire, il pulsante verde con un trattino per diminuire, o sulla freccia verde per le mappe adiacenti.


METAR-TAF: